Time;durP1;ratioP1;P1;durP2;ratioP2;P2;SDS_P1;SDS_P2;PMS_P1;PMS_P2;Temp;Humidity;BMP_temperature;BMP_pressure;BME280_temperature;BME280_humidity;BME280_pressure;Samples;Min_cycle;Max_cycle;Signal;HPM_P1;HPM_P2
2023/09/18 00:00:58;;;;;;;2.90;2.33;;;;;;;21.39;59.76;95105.50;6213366;23;20760;-82
2023/09/18 00:03:26;;;;;;;5.63;3.10;;;;;;;21.45;59.84;95096.66;6187766;23;20186;-83
2023/09/18 00:05:52;;;;;;;3.75;2.70;;;;;;;21.59;59.41;95097.28;6212916;23;20166;-82
2023/09/18 00:08:19;;;;;;;3.40;3.10;;;;;;;21.62;59.20;95088.88;6213196;23;20189;-82
2023/09/18 00:10:49;;;;;;;4.88;2.72;;;;;;;21.62;58.95;95086.25;6213256;23;20150;-82
2023/09/18 00:13:14;;;;;;;3.25;2.20;;;;;;;21.76;58.61;95080.53;6187472;23;20621;-83
2023/09/18 00:15:41;;;;;;;4.55;2.70;;;;;;;21.73;58.71;95073.06;6188012;23;20153;-82
2023/09/18 00:18:06;;;;;;;3.05;2.70;;;;;;;21.72;58.92;95068.00;6212551;23;20153;-82
2023/09/18 00:20:31;;;;;;;5.68;2.75;;;;;;;21.67;58.58;95079.25;6187663;23;20240;-82
2023/09/18 00:22:56;;;;;;;4.53;2.58;;;;;;;21.64;58.42;95071.78;6187080;23;20213;-82
2023/09/18 00:25:22;;;;;;;4.38;3.13;;;;;;;21.69;58.20;95061.34;6212579;23;20165;-82
2023/09/18 00:27:48;;;;;;;7.03;2.75;;;;;;;21.69;58.38;95069.25;6187251;23;20497;-82
2023/09/18 00:30:14;;;;;;;5.43;2.83;;;;;;;21.60;58.56;95069.81;6212696;23;20153;-82
2023/09/18 00:32:39;;;;;;;4.97;2.30;;;;;;;21.70;58.06;95068.22;6211814;23;20168;-81
2023/09/18 00:35:05;;;;;;;3.00;2.10;;;;;;;21.75;57.82;95054.34;6212387;23;20174;-82
2023/09/18 00:37:30;;;;;;;2.42;2.22;;;;;;;21.78;57.91;95059.16;6187497;23;20232;-82
2023/09/18 00:39:55;;;;;;;5.93;2.40;;;;;;;21.78;57.34;95054.69;6187050;23;20174;-81
2023/09/18 00:42:22;;;;;;;3.50;1.98;;;;;;;21.83;57.44;95050.56;6186849;23;20162;-82
2023/09/18 00:44:48;;;;;;;4.70;2.60;;;;;;;21.86;56.81;95042.16;6188139;23;20178;-82
2023/09/18 00:47:14;;;;;;;7.55;2.65;;;;;;;21.89;56.15;95031.91;6212554;23;20173;-82
2023/09/18 00:49:40;;;;;;;4.38;2.22;;;;;;;21.98;56.07;95029.72;6187385;23;20154;-81
2023/09/18 00:52:07;;;;;;;3.72;2.40;;;;;;;21.87;56.16;95039.28;6211931;23;20232;-82
2023/09/18 00:54:33;;;;;;;3.95;2.17;;;;;;;21.85;56.22;95041.34;6212354;23;20178;-82
2023/09/18 00:56:59;;;;;;;3.28;1.95;;;;;;;21.85;55.86;95027.34;6187578;23;20164;-82
2023/09/18 00:59:24;;;;;;;5.68;2.40;;;;;;;21.98;54.99;95029.72;6187421;23;20162;-82
2023/09/18 01:01:50;;;;;;;7.65;2.30;;;;;;;22.05;54.43;95027.78;6186530;23;20189;-82
2023/09/18 01:04:19;;;;;;;4.35;2.17;;;;;;;22.11;54.02;95028.75;6212317;23;20519;-82
2023/09/18 01:06:45;;;;;;;5.85;2.60;;;;;;;22.11;53.27;95036.66;6187289;23;20154;-82
2023/09/18 01:09:14;;;;;;;3.03;2.00;;;;;;;22.22;52.68;95039.28;6187277;23;20189;-81
2023/09/18 01:11:49;;;;;;;4.63;2.25;;;;;;;22.28;52.56;95045.50;6187528;23;20158;-81
2023/09/18 01:14:51;;;;;;;6.47;2.50;;;;;;;22.46;51.54;95049.84;6212526;23;20177;-83
2023/09/18 01:17:16;;;;;;;5.40;2.28;;;;;;;22.43;51.61;95051.09;6187759;23;20160;-81
2023/09/18 01:19:46;;;;;;;2.63;1.85;;;;;;;22.59;51.11;95049.56;6187492;23;20190;-80
2023/09/18 01:22:17;;;;;;;7.50;2.33;;;;;;;22.64;50.77;95052.31;6186424;23;20244;-82
2023/09/18 01:24:44;;;;;;;4.82;1.98;;;;;;;22.63;50.77;95050.72;6212505;23;20197;-82
2023/09/18 01:27:12;;;;;;;3.13;2.10;;;;;;;22.59;50.89;95058.31;6186980;23;20623;-82
2023/09/18 01:29:38;;;;;;;5.03;2.65;;;;;;;22.55;51.20;95064.31;6212070;23;20276;-82
2023/09/18 01:32:03;;;;;;;5.93;2.25;;;;;;;22.48;51.32;95068.94;6186556;23;20184;-82
2023/09/18 01:34:33;;;;;;;4.80;2.03;;;;;;;22.46;51.21;95071.00;6211878;23;20169;-81
2023/09/18 01:36:59;;;;;;;8.00;2.40;;;;;;;22.48;51.25;95082.16;6187184;23;20178;-81
2023/09/18 01:39:27;;;;;;;4.35;2.30;;;;;;;22.46;51.14;95068.34;6186971;23;20221;-82
2023/09/18 01:41:52;;;;;;;4.25;2.35;;;;;;;22.45;51.39;95062.25;6186668;23;20166;-82
2023/09/18 01:44:17;;;;;;;6.13;2.28;;;;;;;22.60;51.16;95064.41;6187277;23;20188;-82
2023/09/18 01:46:44;;;;;;;5.97;2.75;;;;;;;22.57;52.05;95049.00;6182142;23;20522;-81
2023/09/18 01:49:10;;;;;;;3.92;2.33;;;;;;;22.73;53.33;95024.44;6182300;23;20162;-80
2023/09/18 01:51:35;;;;;;;7.25;2.47;;;;;;;22.61;54.39;94995.34;6156815;23;20159;-81
2023/09/18 01:54:01;;;;;;;7.30;2.70;;;;;;;22.42;56.15;95004.50;6156466;23;20189;-81
2023/09/18 01:56:26;;;;;;;5.60;2.65;;;;;;;21.99;57.17;95033.97;6182156;23;20154;-82
2023/09/18 01:58:51;;;;;;;5.53;2.72;;;;;;;21.80;58.29;95037.78;6181883;23;20162;-82
2023/09/18 02:01:17;;;;;;;7.18;2.92;;;;;;;21.60;59.59;95041.56;6182334;23;20226;-82
2023/09/18 02:03:42;;;;;;;6.45;2.65;;;;;;;21.60;59.78;95038.91;6181460;23;20174;-81
2023/09/18 02:06:08;;;;;;;4.68;2.63;;;;;;;21.57;59.97;95042.03;6157084;23;20529;-81
2023/09/18 02:08:34;;;;;;;6.28;2.53;;;;;;;21.40;60.43;95052.44;6181776;23;20228;-81
2023/09/18 02:10:59;;;;;;;7.70;3.15;;;;;;;21.25;61.01;95062.59;6156919;23;20253;-81
2023/09/18 02:13:24;;;;;;;8.40;2.80;;;;;;;21.21;60.27;95064.91;6181237;23;20225;-81
2023/09/18 02:15:50;;;;;;;8.82;2.42;;;;;;;21.24;59.70;95065.47;6157179;23;20493;-82
2023/09/18 02:18:15;;;;;;;5.40;2.28;;;;;;;21.52;58.70;95054.31;6181642;23;20150;-81
2023/09/18 02:20:41;;;;;;;6.03;2.47;;;;;;;21.65;57.29;95054.91;6157194;23;20226;-82
2023/09/18 02:23:06;;;;;;;7.18;2.53;;;;;;;21.87;56.48;95055.13;6206312;23;20558;-82
2023/09/18 02:25:32;;;;;;;7.97;2.45;;;;;;;21.93;56.30;95045.50;6158978;23;20630;-82
2023/09/18 02:27:57;;;;;;;7.60;2.42;;;;;;;21.92;55.54;95049.19;6183617;23;20158;-82
2023/09/18 02:30:22;;;;;;;9.68;2.88;;;;;;;22.01;55.76;95039.88;6158700;23;20158;-81
2023/09/18 02:32:48;;;;;;;7.03;2.38;;;;;;;22.10;55.50;95046.44;6157668;23;20154;-82
2023/09/18 02:35:13;;;;;;;6.10;2.30;;;;;;;22.12;55.41;95043.56;6183571;23;20159;-82
2023/09/18 02:37:38;;;;;;;8.60;2.30;;;;;;;22.05;55.43;95044.44;6158459;23;20166;-82
2023/09/18 02:40:05;;;;;;;7.82;2.60;;;;;;;21.96;55.49;95045.03;6158288;23;20197;-82
2023/09/18 02:42:30;;;;;;;5.50;2.72;;;;;;;21.96;55.12;95043.19;6183042;23;20166;-82
2023/09/18 02:44:55;;;;;;;6.43;2.72;;;;;;;21.95;54.80;95038.13;6183609;23;20177;-82
2023/09/18 02:47:21;;;;;;;8.77;2.42;;;;;;;21.95;55.09;95046.06;6159042;23;20241;-82
2023/09/18 02:49:46;;;;;;;7.57;2.55;;;;;;;21.93;55.19;95040.22;6159385;23;20159;-82
2023/09/18 02:52:11;;;;;;;6.28;2.33;;;;;;;21.93;54.83;95034.94;6185244;23;20155;-82
2023/09/18 02:54:37;;;;;;;4.50;1.92;;;;;;;21.89;54.77;95023.19;6205278;23;20177;-83
2023/09/18 02:57:02;;;;;;;9.13;2.50;;;;;;;21.93;54.83;94998.72;6188727;23;20142;-82
2023/09/18 02:59:27;;;;;;;9.32;2.80;;;;;;;21.95;54.74;95001.94;6213114;23;20172;-82
2023/09/18 03:01:53;;;;;;;9.93;2.40;;;;;;;21.98;54.54;95006.75;6183366;23;20206;-83
2023/09/18 03:04:19;;;;;;;8.82;2.80;;;;;;;21.99;55.08;94997.78;6186828;23;20186;-83
2023/09/18 03:06:44;;;;;;;6.97;2.63;;;;;;;22.04;54.64;94991.81;6190502;23;20583;-82
2023/09/18 03:09:10;;;;;;;11.07;2.72;;;;;;;21.90;55.30;94985.16;6161824;23;20165;-82
2023/09/18 03:11:35;;;;;;;6.18;2.72;;;;;;;22.01;54.85;94979.06;6185258;23;20157;-82
2023/09/18 03:14:00;;;;;;;4.60;2.65;;;;;;;22.07;54.64;94983.44;6187363;23;20709;-82
2023/09/18 03:16:26;;;;;;;7.78;2.38;;;;;;;22.00;54.98;94994.13;6161255;23;20162;-82
2023/09/18 03:18:51;;;;;;;7.65;3.17;;;;;;;21.97;55.18;95014.91;6161399;23;20158;-82
2023/09/18 03:21:16;;;;;;;6.07;2.47;;;;;;;21.90;55.41;95043.28;6161209;23;20237;-82
2023/09/18 03:23:42;;;;;;;8.48;2.67;;;;;;;21.88;55.65;95038.25;6186417;23;20233;-81
2023/09/18 03:26:07;;;;;;;5.35;2.47;;;;;;;21.86;56.06;95055.38;6186125;23;20161;-82
2023/09/18 03:28:32;;;;;;;7.13;2.53;;;;;;;21.79;56.26;95066.06;6186867;23;20159;-82
2023/09/18 03:30:58;;;;;;;8.50;2.90;;;;;;;21.75;56.48;95071.00;6183962;23;20150;-81
2023/09/18 03:33:23;;;;;;;14.50;3.38;;;;;;;21.78;56.00;95073.19;6182393;23;20209;-82
2023/09/18 03:35:50;;;;;;;8.85;2.50;;;;;;;21.88;55.67;95077.91;6183239;23;20484;-82
2023/09/18 03:38:16;;;;;;;9.68;3.63;;;;;;;21.87;56.19;95083.41;6157420;23;20213;-82
2023/09/18 03:40:41;;;;;;;12.98;3.78;;;;;;;21.84;56.14;95086.53;6158067;23;20205;-83
2023/09/18 03:43:07;;;;;;;7.85;2.92;;;;;;;21.87;55.66;95089.50;6156952;23;20570;-82
2023/09/18 03:45:32;;;;;;;8.07;4.05;;;;;;;21.97;55.09;95099.50;6157914;23;20205;-82
2023/09/18 03:47:58;;;;;;;11.57;3.60;;;;;;;22.03;55.22;95106.53;6158920;23;20170;-82
2023/09/18 03:50:23;;;;;;;11.55;3.65;;;;;;;22.17;54.36;95121.16;6184937;23;20151;-81
2023/09/18 03:52:48;;;;;;;9.80;3.20;;;;;;;22.17;54.59;95130.91;6183971;23;20158;-81
2023/09/18 03:55:14;;;;;;;10.35;3.58;;;;;;;22.19;55.78;95134.97;6184365;23;20623;-81
2023/09/18 03:57:40;;;;;;;11.23;3.13;;;;;;;21.89;58.58;95155.34;6160299;23;20210;-82
2023/09/18 04:00:07;;;;;;;12.95;3.25;;;;;;;21.53;62.95;95156.28;6159130;23;20557;-82
2023/09/18 04:02:32;;;;;;;11.88;3.40;;;;;;;21.14;68.43;95159.22;6182951;23;20158;-83
2023/09/18 04:04:58;;;;;;;9.88;3.35;;;;;;;20.63;70.49;95130.59;6157724;23;20289;-82
2023/09/18 04:07:23;;;;;;;7.00;2.47;;;;;;;20.52;73.33;95118.94;6181812;23;20157;-82
2023/09/18 04:09:48;;;;;;;10.85;2.42;;;;;;;20.51;74.03;95095.44;6157469;23;20487;-82
2023/09/18 04:12:14;;;;;;;7.68;2.20;;;;;;;20.22;75.63;95075.81;6181533;23;20539;-83
2023/09/18 04:14:39;;;;;;;4.78;2.10;;;;;;;20.25;76.08;95049.84;6157717;23;20265;-83
2023/09/18 04:17:05;;;;;;;6.68;2.60;;;;;;;20.22;76.78;95034.44;6157677;23;20257;-82
2023/09/18 04:19:30;;;;;;;6.30;2.25;;;;;;;19.99;77.94;95027.19;6158055;23;20239;-82
2023/09/18 04:21:56;;;;;;;6.40;2.20;;;;;;;20.05;76.70;94976.25;6156496;23;20182;-83
2023/09/18 04:24:21;;;;;;;6.10;2.17;;;;;;;20.15;76.29;94988.09;6157895;23;20181;-83
2023/09/18 04:26:47;;;;;;;6.95;2.40;;;;;;;19.98;78.19;95012.41;6182590;23;20515;-82
2023/09/18 04:29:12;;;;;;;11.80;2.47;;;;;;;19.78;79.73;95006.50;6182659;23;20163;-82
2023/09/18 04:31:38;;;;;;;6.22;2.05;;;;;;;19.93;79.34;94985.09;6156737;23;20181;-83
2023/09/18 04:34:03;;;;;;;3.65;2.30;;;;;;;19.74;79.18;94976.38;6181770;23;20194;-82
2023/09/18 04:36:29;;;;;;;6.80;2.63;;;;;;;19.55;80.34;94958.91;6181770;23;20611;-82
2023/09/18 04:38:54;;;;;;;3.80;1.80;;;;;;;19.73;78.70;94935.25;6157446;23;20159;-82
2023/09/18 04:41:20;;;;;;;3.08;1.50;;;;;;;19.60;78.06;94927.47;6157467;23;20516;-82
2023/09/18 04:43:45;;;;;;;7.25;1.90;;;;;;;19.71;77.73;94919.66;6156808;23;20229;-83
2023/09/18 04:46:10;;;;;;;4.28;1.52;;;;;;;19.66;77.03;94913.44;6157771;23;20159;-82
2023/09/18 04:48:36;;;;;;;4.78;1.92;;;;;;;19.56;78.46;94915.75;6185446;23;20618;-81
2023/09/18 04:51:03;;;;;;;5.03;2.17;;;;;;;19.66;78.94;94908.97;6157870;23;20470;-80
2023/09/18 04:53:29;;;;;;;5.93;2.03;;;;;;;19.56;80.72;94921.00;6157819;23;20185;-81
2023/09/18 04:55:55;;;;;;;6.15;1.92;;;;;;;19.66;80.83;94923.97;6158320;23;20208;-82
2023/09/18 04:58:20;;;;;;;5.70;2.08;;;;;;;19.51;81.91;94933.00;6184382;23;20237;-81
2023/09/18 05:00:46;;;;;;;5.18;1.92;;;;;;;19.26;82.46;94934.88;6182536;23;20175;-82
2023/09/18 05:03:12;;;;;;;8.40;1.92;;;;;;;19.12;82.57;94926.28;6181293;23;20177;-82
2023/09/18 05:05:37;;;;;;;5.22;2.13;;;;;;;19.40;81.15;94936.34;6157134;23;20154;-82
2023/09/18 05:08:07;;;;;;;6.30;2.70;;;;;;;19.22;80.49;94931.03;6182209;23;20157;-82
2023/09/18 05:10:32;;;;;;;6.78;2.58;;;;;;;19.34;79.41;94937.19;6183089;23;20155;-82
2023/09/18 05:13:00;;;;;;;10.32;2.78;;;;;;;19.46;77.58;94945.22;6156274;23;20692;-81
2023/09/18 05:15:26;;;;;;;7.82;1.90;;;;;;;19.48;77.83;94949.22;6182197;23;20245;-82
2023/09/18 05:17:55;;;;;;;5.88;1.98;;;;;;;19.46;78.18;94967.09;6182327;23;20197;-82
2023/09/18 05:20:24;;;;;;;6.78;2.92;;;;;;;19.50;78.58;94962.97;6206914;23;20178;-80
2023/09/18 05:22:50;;;;;;;10.00;3.28;;;;;;;19.51;79.82;94975.13;6182058;23;20161;-82
2023/09/18 05:25:16;;;;;;;9.07;2.25;;;;;;;19.49;80.23;94990.34;6183371;23;20162;-82
2023/09/18 05:27:44;;;;;;;6.97;2.20;;;;;;;19.32;81.26;94991.91;6158431;23;20241;-82
2023/09/18 05:30:22;;;;;;;5.80;2.42;;;;;;;19.45;80.76;95002.34;6159675;23;20157;-82
2023/09/18 05:32:48;;;;;;;7.95;1.85;;;;;;;19.57;80.50;95005.09;6156568;23;20157;-82
2023/09/18 05:35:14;;;;;;;6.05;2.10;;;;;;;19.28;81.06;95001.25;6207744;23;20155;-82
2023/09/18 05:37:39;;;;;;;7.07;2.13;;;;;;;19.32;78.67;94989.28;6157350;23;20190;-81
2023/09/18 05:40:09;;;;;;;7.70;2.10;;;;;;;19.47;77.54;94986.31;6181704;23;20273;-82
2023/09/18 05:42:34;;;;;;;8.70;2.92;;;;;;;19.51;77.42;94975.13;6181127;23;20169;-82
2023/09/18 05:45:00;;;;;;;10.23;2.25;;;;;;;19.49;77.53;94985.06;6157746;23;20166;-81
2023/09/18 05:47:25;;;;;;;8.48;2.15;;;;;;;19.70;76.72;94997.09;6157422;23;20625;-81
2023/09/18 05:49:51;;;;;;;7.38;2.10;;;;;;;19.46;77.69;94977.63;6181896;23;20151;-82
2023/09/18 05:52:16;;;;;;;8.15;1.85;;;;;;;19.40;76.31;94983.75;6155627;23;20242;-82
2023/09/18 05:54:41;;;;;;;7.05;2.08;;;;;;;19.45;75.38;94975.22;6156358;23;20192;-82
2023/09/18 05:57:07;;;;;;;7.38;2.25;;;;;;;19.75;71.91;94970.06;6157272;23;20165;-82
2023/09/18 05:59:32;;;;;;;4.65;1.80;;;;;;;19.86;70.59;94968.53;6158628;23;20162;-82
2023/09/18 06:01:58;;;;;;;11.10;2.20;;;;;;;20.00;69.45;94978.72;6180186;23;20195;-82
2023/09/18 06:04:23;;;;;;;5.40;2.03;;;;;;;20.12;68.97;94988.53;6150587;23;20591;-82
2023/09/18 06:06:49;;;;;;;5.45;1.58;;;;;;;20.07;69.63;94982.09;6180343;23;20244;-83
2023/09/18 06:09:14;;;;;;;8.05;1.90;;;;;;;20.12;68.93;94993.81;6157375;23;20220;-82
2023/09/18 06:11:39;;;;;;;4.57;1.50;;;;;;;20.14;68.88;94991.75;6155164;23;20162;-82
2023/09/18 06:14:04;;;;;;;8.57;2.22;;;;;;;19.89;69.25;95000.53;6156627;23;20253;-80
2023/09/18 06:16:31;;;;;;;3.40;1.40;;;;;;;20.03;67.92;95003.84;6157983;23;20171;-80
2023/09/18 06:18:56;;;;;;;5.40;1.50;;;;;;;19.98;67.96;95001.88;6179810;23;20590;-80
2023/09/18 06:21:21;;;;;;;3.50;1.35;;;;;;;20.17;65.97;95005.31;6183093;23;20229;-80
2023/09/18 06:23:46;;;;;;;7.78;1.75;;;;;;;20.12;66.05;95001.72;6182996;23;20692;-83
2023/09/18 06:26:12;;;;;;;4.53;2.13;;;;;;;20.22;66.93;94999.34;6158387;23;20186;-82
2023/09/18 06:28:38;;;;;;;2.75;1.27;;;;;;;20.22;66.10;95002.81;6160314;23;20170;-83
2023/09/18 06:31:03;;;;;;;4.40;1.23;;;;;;;20.06;65.71;95009.50;6161244;23;20215;-82
2023/09/18 06:33:29;;;;;;;4.53;1.40;;;;;;;20.14;66.61;95010.19;6184021;23;20753;-82
2023/09/18 06:35:54;;;;;;;4.25;1.45;;;;;;;20.05;66.25;95010.50;6183496;23;20556;-82
2023/09/18 06:38:20;;;;;;;4.78;1.50;;;;;;;19.93;66.00;95017.53;6161038;23;20557;-82
2023/09/18 06:40:46;;;;;;;5.72;1.55;;;;;;;20.07;66.19;95016.38;6185659;23;20628;-83
2023/09/18 06:43:11;;;;;;;5.55;1.20;;;;;;;20.09;66.54;95013.50;6183838;23;20174;-83
2023/09/18 06:45:37;;;;;;;2.90;1.17;;;;;;;19.70;67.31;95012.06;6184976;23;20521;-82
2023/09/18 06:48:04;;;;;;;4.45;1.10;;;;;;;19.71;67.67;95011.06;6160553;23;20158;-82
2023/09/18 06:50:29;;;;;;;4.57;1.30;;;;;;;19.71;67.79;95000.53;6184707;23;20151;-83
2023/09/18 06:52:54;;;;;;;3.85;1.00;;;;;;;19.84;67.04;94991.69;6159315;23;20205;-83
2023/09/18 06:55:19;;;;;;;5.10;1.83;;;;;;;19.62;67.43;94986.03;6184631;23;20236;-82
2023/09/18 06:57:46;;;;;;;2.42;1.13;;;;;;;19.83;66.46;94993.50;6160521;23;20159;-83
2023/09/18 07:00:14;;;;;;;3.33;1.25;;;;;;;19.92;65.75;94994.81;6184324;23;20179;-83
2023/09/18 07:02:40;;;;;;;3.00;1.20;;;;;;;19.89;64.49;95005.00;6185606;23;20150;-83
2023/09/18 07:05:05;;;;;;;3.75;1.25;;;;;;;19.91;65.07;95024.03;6158904;23;20167;-82
2023/09/18 07:07:32;;;;;;;6.60;1.55;;;;;;;19.94;64.40;95031.50;6207717;23;20174;-82
2023/09/18 07:09:57;;;;;;;2.22;1.08;;;;;;;20.07;63.95;95042.72;6158947;23;20694;-81
2023/09/18 07:12:23;;;;;;;1.85;0.90;;;;;;;19.92;64.13;95042.25;6183793;23;20182;-82
2023/09/18 07:14:49;;;;;;;1.13;0.68;;;;;;;19.80;64.11;95044.00;6185004;23;20170;-82
2023/09/18 07:17:15;;;;;;;1.70;1.30;;;;;;;20.02;63.97;95049.66;6159371;23;20539;-82
2023/09/18 07:19:40;;;;;;;3.40;1.10;;;;;;;20.03;64.54;95046.81;6185898;23;20193;-81
2023/09/18 07:22:06;;;;;;;3.78;0.93;;;;;;;20.11;63.59;95043.06;6158093;23;20233;-82
2023/09/18 07:24:31;;;;;;;2.50;0.82;;;;;;;20.11;64.08;95026.47;6159299;23;20668;-82
2023/09/18 07:26:57;;;;;;;1.23;0.75;;;;;;;20.18;63.77;95032.47;6159264;23;20168;-80
2023/09/18 07:29:25;;;;;;;3.72;1.25;;;;;;;20.04;64.49;95039.69;6158017;23;20169;-81
2023/09/18 07:31:51;;;;;;;2.90;0.70;;;;;;;19.93;63.79;95043.06;6206760;23;20154;-80
2023/09/18 07:34:19;;;;;;;1.23;0.55;;;;;;;19.80;64.03;95046.66;6151580;23;20661;-80
2023/09/18 07:36:44;;;;;;;3.45;1.10;;;;;;;19.84;64.45;95041.72;6154093;23;20174;-80
2023/09/18 07:39:11;;;;;;;2.83;0.60;;;;;;;20.05;63.66;95041.31;6153929;23;20159;-78
2023/09/18 07:41:37;;;;;;;1.88;0.85;;;;;;;20.13;63.60;95041.03;6179056;23;20278;-80
2023/09/18 07:44:02;;;;;;;2.38;0.90;;;;;;;20.16;63.16;95037.16;6179861;23;20599;-79
2023/09/18 07:46:27;;;;;;;2.45;0.88;;;;;;;20.29;62.63;95040.44;6182434;23;20237;-80
2023/09/18 07:48:53;;;;;;;1.15;0.63;;;;;;;20.23;62.12;95041.34;6184694;23;20201;-80
2023/09/18 07:51:18;;;;;;;1.60;0.60;;;;;;;20.38;61.54;95044.41;6157855;23;20634;-79
2023/09/18 07:53:44;;;;;;;2.35;0.80;;;;;;;20.75;60.41;95051.50;6157745;23;20657;-79
2023/09/18 07:56:09;;;;;;;1.00;0.70;;;;;;;20.61;59.88;95054.31;6183614;23;20157;-79
2023/09/18 07:58:38;;;;;;;3.88;0.60;;;;;;;20.65;59.32;95052.84;6157743;23;20557;-79
2023/09/18 08:01:05;;;;;;;0.93;0.60;;;;;;;20.81;59.30;95058.53;6158836;23;20189;-80
2023/09/18 08:03:30;;;;;;;1.52;0.80;;;;;;;20.66;58.96;95064.19;6156958;23;20216;-80
2023/09/18 08:05:56;;;;;;;1.38;0.70;;;;;;;20.79;58.26;95079.06;6183248;23;20297;-79
2023/09/18 08:08:23;;;;;;;2.25;0.70;;;;;;;20.95;58.71;95091.66;6182803;23;20649;-79
2023/09/18 08:10:49;;;;;;;1.83;0.70;;;;;;;20.70;59.44;95104.16;6182013;23;20205;-79
2023/09/18 08:13:14;;;;;;;1.30;0.80;;;;;;;20.74;59.48;95108.75;6181645;23;20178;-79
2023/09/18 08:15:39;;;;;;;1.70;0.63;;;;;;;20.22;60.43;95125.91;6180972;23;20177;-79
2023/09/18 08:18:05;;;;;;;1.17;0.68;;;;;;;20.28;61.20;95127.69;6157985;23;20529;-80
2023/09/18 08:20:30;;;;;;;3.22;0.80;;;;;;;20.23;62.99;95130.16;6157496;23;20781;-80
2023/09/18 08:22:56;;;;;;;1.23;0.73;;;;;;;20.25;64.15;95128.13;6183659;23;20178;-80
2023/09/18 08:25:21;;;;;;;1.63;0.65;;;;;;;20.26;64.87;95120.00;6157116;23;20164;-81
2023/09/18 08:27:48;;;;;;;1.25;0.70;;;;;;;20.37;64.82;95115.81;6181595;23;20194;-79
2023/09/18 08:30:14;;;;;;;1.60;0.60;;;;;;;20.20;65.84;95102.41;6180917;23;20173;-78
2023/09/18 08:32:41;;;;;;;1.10;0.80;;;;;;;20.21;66.19;95093.47;6180639;23;20237;-78
2023/09/18 08:35:07;;;;;;;2.25;0.70;;;;;;;20.24;67.11;95089.59;6181809;23;20164;-78
2023/09/18 08:37:32;;;;;;;2.22;1.08;;;;;;;20.33;67.99;95081.19;6182259;23;20170;-78
2023/09/18 08:40:00;;;;;;;2.40;0.90;;;;;;;20.36;68.49;95083.38;6156087;23;20549;-76
2023/09/18 08:42:29;;;;;;;3.08;0.98;;;;;;;19.97;69.75;95081.94;6200051;23;20138;-78
2023/09/18 08:44:57;;;;;;;1.95;1.00;;;;;;;19.75;71.68;95089.44;6233963;23;20185;-75
2023/09/18 08:47:22;;;;;;;1.27;0.95;;;;;;;19.62;72.10;95115.09;6209058;23;20154;-77
2023/09/18 08:49:49;;;;;;;2.15;0.80;;;;;;;19.61;72.41;95106.34;6233027;23;20154;-77
2023/09/18 08:52:15;;;;;;;3.63;0.98;;;;;;;19.52;73.87;95131.28;6174415;23;20143;-79
2023/09/18 08:54:42;;;;;;;3.55;1.10;;;;;;;19.48;75.00;95136.19;6181042;23;20210;-79
2023/09/18 08:57:08;;;;;;;2.53;1.10;;;;;;;19.44;75.61;95137.66;6205536;23;20670;-77
2023/09/18 08:59:35;;;;;;;2.15;1.17;;;;;;;19.44;76.43;95156.09;6180953;23;20230;-79
2023/09/18 09:02:00;;;;;;;2.42;1.17;;;;;;;19.27;77.50;95157.59;6179841;23;20189;-78
2023/09/18 09:04:26;;;;;;;3.08;1.25;;;;;;;19.27;77.77;95165.50;6180940;23;20174;-79
2023/09/18 09:06:51;;;;;;;3.50;1.20;;;;;;;19.20;78.51;95173.41;6181161;23;20162;-79
2023/09/18 09:09:19;;;;;;;2.05;0.90;;;;;;;19.17;78.60;95165.13;6154557;23;20155;-79
2023/09/18 09:11:50;;;;;;;1.80;0.95;;;;;;;19.13;78.87;95166.56;6153072;23;20302;-77
2023/09/18 09:14:21;;;;;;;1.40;0.90;;;;;;;19.15;79.13;95149.53;6178203;23;20180;-79
2023/09/18 09:16:51;;;;;;;1.73;1.23;;;;;;;19.22;78.58;95145.06;6156716;23;20155;-79
2023/09/18 09:19:17;;;;;;;1.50;0.90;;;;;;;19.31;78.91;95152.72;6205361;23;20162;-78
2023/09/18 09:21:44;;;;;;;3.17;1.25;;;;;;;19.19;78.67;95142.06;6154826;23;21022;-78
2023/09/18 09:24:15;;;;;;;2.50;1.10;;;;;;;19.42;78.22;95147.56;6181129;23;20189;-78
2023/09/18 09:26:41;;;;;;;2.47;1.05;;;;;;;19.47;78.79;95128.50;6204706;23;20143;-78
2023/09/18 09:29:18;;;;;;;3.13;1.10;;;;;;;19.16;79.64;95127.47;6181403;23;20181;-78
2023/09/18 09:31:45;;;;;;;2.97;1.30;;;;;;;19.38;79.33;95143.75;6205726;23;20157;-78
2023/09/18 09:34:10;;;;;;;3.33;1.27;;;;;;;19.44;79.37;95152.66;6206130;23;20642;-79
2023/09/18 09:36:35;;;;;;;3.88;1.00;;;;;;;19.20;80.74;95156.81;6183866;23;20176;-83
2023/09/18 09:39:04;;;;;;;4.65;1.27;;;;;;;19.43;79.15;95153.63;6186254;23;20139;-82
2023/09/18 09:41:31;;;;;;;2.90;1.20;;;;;;;19.71;77.83;95153.31;6183355;23;20185;-82
2023/09/18 09:43:57;;;;;;;2.35;1.83;;;;;;;19.81;78.44;95135.19;6183064;23;20179;-82
2023/09/18 09:46:25;;;;;;;2.15;1.08;;;;;;;19.77;77.17;95131.34;6183356;23;20159;-81
2023/09/18 09:49:04;;;;;;;2.55;1.00;;;;;;;19.59;76.48;95113.66;6182913;23;20182;-82
2023/09/18 09:51:30;;;;;;;3.47;1.10;;;;;;;19.53;75.60;95117.94;6181836;23;20216;-81
2023/09/18 09:53:58;;;;;;;2.38;1.08;;;;;;;19.80;74.25;95117.78;6156899;23;20613;-82
2023/09/18 09:56:50;;;;;;;2.33;0.95;;;;;;;19.76;72.84;95140.28;6159009;23;20158;-83
2023/09/18 09:59:17;;;;;;;4.90;1.15;;;;;;;19.68;72.93;95146.63;6182330;23;20238;-77
2023/09/18 10:01:44;;;;;;;2.38;1.48;;;;;;;19.55;72.31;95133.53;6179497;23;20206;-78
2023/09/18 10:04:17;;;;;;;1.23;1.00;;;;;;;19.79;72.72;95135.41;6206175;23;20174;-78
2023/09/18 10:07:00;;;;;;;1.65;0.88;;;;;;;19.18;72.66;95135.19;6181243;23;20135;-78
2023/09/18 10:09:28;;;;;;;3.33;1.00;;;;;;;19.17;72.73;95130.91;6181208;23;20225;-80
2023/09/18 10:11:55;;;;;;;1.30;0.90;;;;;;;18.99;72.68;95136.06;6155895;23;20209;-79
2023/09/18 10:14:29;;;;;;;3.65;0.90;;;;;;;19.22;71.89;95124.00;6180877;23;20209;-80
2023/09/18 10:16:55;;;;;;;2.47;0.95;;;;;;;19.17;71.33;95120.38;6206173;23;20139;-80
2023/09/18 10:19:40;;;;;;;2.50;0.90;;;;;;;19.59;70.77;95118.94;6206226;23;20155;-79
2023/09/18 10:22:37;;;;;;;0.88;0.70;;;;;;;19.48;70.33;95125.66;6179018;23;20285;-80
2023/09/18 10:25:17;;;;;;;4.93;0.93;;;;;;;19.59;69.78;95141.81;6205011;23;20186;-79
2023/09/18 10:27:45;;;;;;;1.30;0.73;;;;;;;19.86;69.77;95147.72;6205668;23;20230;-80
2023/09/18 10:30:11;;;;;;;1.50;0.82;;;;;;;19.94;69.22;95166.69;6181907;23;20523;-81
2023/09/18 10:32:38;;;;;;;1.35;0.90;;;;;;;19.82;70.45;95163.16;6181952;23;20174;-81
2023/09/18 10:35:05;;;;;;;1.83;0.90;;;;;;;19.99;70.69;95166.88;6182455;23;20241;-81
2023/09/18 10:37:31;;;;;;;2.40;0.93;;;;;;;19.89;70.90;95163.91;6181982;23;20178;-82
2023/09/18 10:39:58;;;;;;;2.30;0.75;;;;;;;19.73;72.20;95159.16;6183250;23;20174;-82
2023/09/18 10:42:24;;;;;;;1.83;0.90;;;;;;;19.84;72.44;95147.13;6156975;23;20206;-81
2023/09/18 10:44:50;;;;;;;1.90;1.00;;;;;;;19.84;72.56;95153.19;6157558;23;20175;-82
2023/09/18 10:47:16;;;;;;;3.05;1.00;;;;;;;19.57;73.68;95143.88;6159347;23;20170;-80
2023/09/18 10:49:41;;;;;;;1.65;1.02;;;;;;;19.76;73.48;95150.81;6184114;23;20502;-77
2023/09/18 10:52:12;;;;;;;1.75;1.10;;;;;;;19.69;74.60;95140.31;6184574;23;20242;-77
2023/09/18 10:54:38;;;;;;;1.77;1.00;;;;;;;19.80;75.00;95152.03;6158888;23;20186;-78
2023/09/18 10:57:03;;;;;;;3.28;1.75;;;;;;;19.83;75.46;95135.78;6184077;23;20163;-77
2023/09/18 10:59:30;;;;;;;3.13;1.15;;;;;;;19.88;75.65;95138.59;6182580;23;20158;-78
2023/09/18 11:01:55;;;;;;;2.35;0.90;;;;;;;19.73;77.15;95146.00;6181885;23;20179;-77
2023/09/18 11:04:21;;;;;;;3.40;1.20;;;;;;;19.65;77.32;95144.41;6156677;23;20764;-78
2023/09/18 11:06:55;;;;;;;3.67;1.27;;;;;;;19.64;78.06;95149.91;6158099;23;20554;-79
2023/09/18 11:09:25;;;;;;;3.55;1.48;;;;;;;20.00;76.77;95146.59;6185316;23;20182;-79
2023/09/18 11:12:03;;;;;;;2.35;1.23;;;;;;;19.74;77.40;95153.69;6183022;23;20158;-79
2023/09/18 11:15:04;;;;;;;2.75;1.17;;;;;;;20.14;75.94;95149.91;6184282;23;20170;-79
2023/09/18 11:17:39;;;;;;;2.15;1.45;;;;;;;20.07;76.03;95149.97;6069590;23;20175;-78
2023/09/18 11:20:24;;;;;;;2.67;0.90;;;;;;;20.18;75.04;95149.28;6069325;23;20248;-78
2023/09/18 11:22:59;;;;;;;1.95;1.10;;;;;;;20.00;75.46;95152.66;6068106;23;20204;-78
2023/09/18 11:25:37;;;;;;;2.78;1.48;;;;;;;20.23;74.34;95146.81;6044299;23;20174;-78
2023/09/18 11:28:03;;;;;;;1.73;0.90;;;;;;;20.21;74.06;95159.38;6069525;23;20160;-78
2023/09/18 11:30:29;;;;;;;2.13;1.30;;;;;;;20.16;74.24;95161.06;6070395;23;20157;-81
2023/09/18 11:32:55;;;;;;;2.53;1.13;;;;;;;20.02;74.38;95169.06;6043389;23;20180;-80